CW5416 Weather Reports


time (UTC)temp
C
wind
direction
speed
KPH
gust
KPH
rain 1hr
cm
rain 24hr
cm
rain mn
cm
humidity
%
barometer
mb
20260503181005 28 0 0.0 0.0 0.00 0.00 0.00 33 856.2
20260503180503 28 0 0.0 0.0 0.00 0.00 0.00 34 856.2
20260503180002 27 0 0.0 0.0 0.00 0.00 0.00 35 856.2
20260503175506 27 0 0.0 0.0 0.00 0.00 0.00 35 856.2
20260503175004 27 0 0.0 0.0 0.00 0.00 0.00 34 856.2
20260503174501 27 0 0.0 0.0 0.00 0.00 0.00 36 856.2
20260503174005 27 0 0.0 0.0 0.00 0.00 0.00 37 856.2
20260503173000 26 0 0.0 0.0 0.00 0.00 0.00 39 856.2
20260503172505 26 0 0.0 0.0 0.00 0.00 0.00 38 856.2
20260503172002 26 0 0.0 0.0 0.00 0.00 0.00 38 856.2
20260503171501 26 0 0.0 0.0 0.00 0.00 0.00 40 856.2
20260503171005 25 0 0.0 0.0 0.00 0.00 0.00 41 856.2
20260503170503 24 0 0.0 0.0 0.00 0.00 0.00 43 856.2
20260503151003 17 0 0.0 0.0 0.00 0.00 0.00 70 856.2
20260503130505 13 0 0.0 0.0 0.00 0.00 0.00 90 856.2
20260503110506 12 0 0.0 0.0 0.00 0.00 0.00 93 856.2
20260503090506 13 0 0.0 0.0 0.00 0.00 0.00 90 856.2
20260503081503 13 0 0.0 0.0 0.00 0.00 0.00 86 856.2
20260503081001 13 0 0.0 0.0 0.00 0.00 0.00 87 856.2
20260503080506 13 0 0.0 0.0 0.00 0.00 0.00 88 856.2
20260503072502 14 0 0.0 0.0 0.00 0.00 0.00 82 856.2
20260503072006 14 0 0.0 0.0 0.00 0.00 0.00 83 856.2
20260503071504 14 0 0.0 0.0 0.00 0.00 0.00 83 856.2
20260503070505 14 0 0.0 0.0 0.00 0.00 0.00 82 856.2
20260503055003 16 0 0.0 0.0 0.00 0.00 0.00 73 856.2
20260503054506 16 0 0.0 0.0 0.00 0.00 0.00 73 856.2
20260503054004 16 0 0.0 0.0 0.00 0.00 0.00 72 856.2
20260503053502 16 0 0.0 0.0 0.00 0.00 0.00 73 856.2
20260503052504 16 0 0.0 0.0 0.00 0.00 0.00 74 856.2
20260503052002 16 0 0.0 0.0 0.00 0.00 0.00 74 856.2
20260503051501 16 0 0.0 0.0 0.00 0.00 0.00 72 856.2
20260503051006 16 0 0.0 0.0 0.00 0.00 0.00 71 856.2
20260503050504 16 0 0.0 0.0 0.00 0.00 0.00 72 856.2
20260503050002 17 0 0.0 0.0 0.00 0.00 0.00 72 856.2
20260503045506 17 0 0.0 0.0 0.00 0.00 0.00 71 856.2
20260503044504 17 0 0.0 0.0 0.00 0.00 0.00 70 856.2
20260503044003 17 0 0.0 0.0 0.00 0.00 0.00 70 856.2
20260503043507 17 0 0.0 0.0 0.00 0.00 0.00 69 856.2
20260503042502 17 0 0.0 0.0 0.00 0.00 0.00 69 856.2
20260503041503 17 0 0.0 0.0 0.00 0.00 0.00 69 856.2
20260503041002 17 0 0.0 0.0 0.00 0.00 0.00 70 856.2
20260503040004 17 0 0.0 0.0 0.00 0.00 0.00 69 856.2
20260503035502 17 0 0.0 0.0 0.00 0.00 0.00 69 856.2
20260503035007 17 0 0.0 0.0 0.00 0.00 0.00 69 856.2
20260503034504 17 0 0.0 0.0 0.00 0.00 0.00 69 856.2
20260503034003 17 0 0.0 0.0 0.00 0.00 0.00 69 856.2
20260503033502 18 0 0.0 0.0 0.00 0.00 0.00 68 856.2
20260503033006 18 0 0.0 0.0 0.00 0.00 0.00 68 856.2
20260503032006 18 0 0.0 0.0 0.00 0.00 0.00 68 856.2
20260503031504 18 0 0.0 0.0 0.00 0.00 0.00 67 856.2
20260503031003 18 0 0.0 0.0 0.00 0.00 0.00 67 856.2
20260503030501 18 0 0.0 0.0 0.00 0.00 0.00 66 856.2
20260503030006 18 0 0.0 0.0 0.00 0.00 0.00 66 856.2
20260503025007 18 0 0.0 0.0 0.00 0.00 0.00 64 856.2
20260503024524 18 0 0.0 0.0 0.00 0.00 0.00 63 856.2
20260503024005 19 0 0.0 0.0 0.00 0.00 0.00 62 856.2
20260503023503 19 0 0.0 0.0 0.00 0.00 0.00 62 856.2
20260503023007 19 0 0.0 0.0 0.00 0.00 0.00 62 856.2
20260503022505 19 0 0.0 0.0 0.00 0.00 0.00 61 856.2
20260503022004 19 0 0.0 0.0 0.00 0.00 0.00 59 856.2
20260503021503 19 0 0.0 0.0 0.00 0.00 0.00 60 856.2
20260503021007 19 0 0.0 0.0 0.00 0.00 0.00 60 856.2
20260503020505 19 0 0.0 0.0 0.00 0.00 0.00 61 856.2
20260503020003 19 0 0.0 0.0 0.00 0.00 0.00 61 856.2
20260503015506 19 0 0.0 0.0 0.00 0.00 0.00 61 856.2
20260503015005 19 0 0.0 0.0 0.00 0.00 0.00 61 856.2
20260503014503 19 0 0.0 0.0 0.00 0.00 0.00 60 856.2
20260503014002 20 0 0.0 0.0 0.00 0.00 0.00 59 856.2
20260503013002 20 0 0.0 0.0 0.00 0.00 0.00 57 856.2
20260503012003 20 0 0.0 0.0 0.00 0.00 0.00 57 856.2
20260503011502 20 0 0.0 0.0 0.00 0.00 0.00 56 856.2
20260503011006 20 0 0.0 0.0 0.00 0.00 0.00 56 856.2
20260503010505 20 0 0.0 0.0 0.00 0.00 0.00 55 856.2
20260503010003 20 0 0.0 0.0 0.00 0.00 0.00 55 856.2
20260503005004 21 0 0.0 0.0 0.00 0.00 0.00 53 856.2
20260503004502 21 0 0.0 0.0 0.00 0.00 0.00 52 856.2
20260503004006 21 0 0.0 0.0 0.00 0.00 0.00 49 856.2
20260503003002 22 0 0.0 0.0 0.00 0.00 0.00 48 856.2
20260503002506 22 0 0.0 0.0 0.00 0.00 0.00 44 856.2
20260503002005 22 0 0.0 0.0 0.00 0.00 0.00 46 856.2
20260503001503 22 0 0.0 0.0 0.00 0.00 0.00 46 856.2
20260503001007 22 0 0.0 0.0 0.00 0.00 0.00 47 856.2
20260503000505 22 0 0.0 0.0 0.00 0.00 0.00 46 856.2
20260503000003 22 0 0.0 0.0 0.00 0.00 0.00 45 856.2
20260502235005 22 0 0.0 0.0 0.00 0.00 0.00 46 856.2
20260502234503 22 0 0.0 0.0 0.00 0.00 0.00 45 856.2
20260502234007 23 0 0.0 0.0 0.00 0.00 0.00 44 856.2
20260502233002 23 0 0.0 0.0 0.00 0.00 0.00 44 856.2
20260502232500 23 0 0.0 0.0 0.00 0.00 0.00 45 856.2
20260502232005 23 0 0.0 0.0 0.00 0.00 0.00 44 856.2
20260502231504 23 0 0.0 0.0 0.00 0.00 0.00 44 856.2
20260502231002 23 0 0.0 0.0 0.00 0.00 0.00 45 856.2
20260502230506 22 0 0.0 0.0 0.00 0.00 0.00 44 856.2
20260502225501 22 0 0.0 0.0 0.00 0.00 0.00 46 856.2
20260502225005 21 0 0.0 0.0 0.00 0.00 0.00 48 856.2
20260502224001 22 0 0.0 0.0 0.00 0.00 0.00 45 856.2
20260502223506 22 0 0.0 0.0 0.00 0.00 0.00 46 856.2
20260502223004 21 0 0.0 0.0 0.00 0.00 0.00 47 856.2
20260502222502 22 0 0.0 0.0 0.00 0.00 0.00 46 856.2
20260502222006 22 0 0.0 0.0 0.00 0.00 0.00 45 856.2
20260502221504 21 0 0.0 0.0 0.00 0.00 0.00 47 856.2
20260502221003 21 0 0.0 0.0 0.00 0.00 0.00 45 856.2
20260502220004 22 0 0.0 0.0 0.00 0.00 0.00 44 856.2
20260502215502 23 0 0.0 0.0 0.00 0.00 0.00 42 856.2
20260502215001 22 0 0.0 0.0 0.00 0.00 0.00 44 856.2
20260502214505 22 0 0.0 0.0 0.00 0.00 0.00 44 856.2
20260502214003 22 0 0.0 0.0 0.00 0.00 0.00 44 856.2
20260502213502 21 0 0.0 0.0 0.00 0.00 0.00 45 856.2
20260502212506 21 0 0.0 0.0 0.00 0.00 0.00 45 856.2
20260502212005 21 0 0.0 0.0 0.00 0.00 0.00 46 856.2
20260502211503 22 0 0.0 0.0 0.00 0.00 0.00 44 856.2
20260502211001 21 0 0.0 0.0 0.00 0.00 0.00 47 856.2
20260502210002 20 0 0.0 0.0 0.00 0.00 0.00 52 856.2
20260502205500 19 0 0.0 0.0 0.00 0.00 0.00 53 856.2
20260502205006 19 0 0.0 0.0 0.00 0.00 0.00 52 856.2
20260502204504 20 0 0.0 0.0 0.00 0.00 0.00 47 856.2
20260502203505 20 0 0.0 0.0 0.00 0.00 0.00 51 856.2
20260502203004 19 0 0.0 0.0 0.00 0.00 0.00 52 856.2
20260502202502 19 0 0.0 0.0 0.00 0.00 0.00 51 856.2
20260502202000 18 0 0.0 0.0 0.00 0.00 0.00 52 856.2
20260502201505 18 0 0.0 0.0 0.00 0.00 0.00 52 856.2
20260502200506 18 0 0.0 0.0 0.00 0.00 0.00 55 856.2
20260502200004 17 0 0.0 0.0 0.00 0.00 0.00 57 856.2
20260502195503 17 0 0.0 0.0 0.00 0.00 0.00 58 856.2
20260502195001 17 0 0.0 0.0 0.00 0.00 0.00 57 856.2
20260502194506 17 0 0.0 0.0 0.00 0.00 0.00 58 856.2
20260502194004 17 0 0.0 0.0 0.00 0.00 0.00 59 856.2
20260502193502 16 0 0.0 0.0 0.00 0.00 0.00 59 856.2
20260502192503 16 0 0.0 0.0 0.00 0.00 0.00 62 856.2
20260502192002 16 0 0.0 0.0 0.00 0.00 0.00 62 856.2
20260502191003 16 0 0.0 0.0 0.00 0.00 0.00 62 856.2
20260502190004 15 0 0.0 0.0 0.00 0.00 0.00 65 856.2
20260502185502 15 0 0.0 0.0 0.00 0.00 0.00 64 856.2
20260502185000 15 0 0.0 0.0 0.00 0.00 0.00 64 856.2
20260502184505 15 0 0.0 0.0 0.00 0.00 0.00 64 856.2
20260502184003 15 0 0.0 0.0 0.00 0.00 0.00 64 856.2
20260502182502 15 0 0.0 0.0 0.00 0.00 0.00 64 856.2
20260502182006 15 0 0.0 0.0 0.00 0.00 0.00 65 856.2
20260502181504 15 0 0.0 0.0 0.00 0.00 0.00 65 856.2